sensor_id;sensor_type;location;lat;lon;timestamp;P1;durP1;ratioP1;P2;durP2;ratioP2
77520;SDS011;66633;47.628;19.158;2023-06-26T00:01:59;7.50;;;4.47;;
77520;SDS011;66633;47.628;19.158;2023-06-26T00:04:25;8.10;;;4.97;;
77520;SDS011;66633;47.628;19.158;2023-06-26T00:06:51;8.30;;;4.97;;
77520;SDS011;66633;47.628;19.158;2023-06-26T00:09:16;7.50;;;4.97;;
77520;SDS011;66633;47.628;19.158;2023-06-26T00:11:41;8.95;;;5.07;;
77520;SDS011;66633;47.628;19.158;2023-06-26T00:14:07;8.07;;;5.00;;
77520;SDS011;66633;47.628;19.158;2023-06-26T00:16:32;6.43;;;4.10;;
77520;SDS011;66633;47.628;19.158;2023-06-26T00:18:57;8.30;;;5.13;;
77520;SDS011;66633;47.628;19.158;2023-06-26T00:21:24;8.68;;;5.20;;
77520;SDS011;66633;47.628;19.158;2023-06-26T00:23:49;9.68;;;5.90;;
77520;SDS011;66633;47.628;19.158;2023-06-26T00:26:14;7.83;;;5.13;;
77520;SDS011;66633;47.628;19.158;2023-06-26T00:28:39;8.90;;;5.47;;
77520;SDS011;66633;47.628;19.158;2023-06-26T00:31:05;8.33;;;5.77;;
77520;SDS011;66633;47.628;19.158;2023-06-26T00:33:30;9.90;;;6.07;;
77520;SDS011;66633;47.628;19.158;2023-06-26T00:35:55;10.27;;;6.33;;
77520;SDS011;66633;47.628;19.158;2023-06-26T00:38:20;10.20;;;5.97;;
77520;SDS011;66633;47.628;19.158;2023-06-26T00:40:46;10.23;;;6.93;;
77520;SDS011;66633;47.628;19.158;2023-06-26T00:43:11;10.93;;;7.78;;
77520;SDS011;66633;47.628;19.158;2023-06-26T00:45:37;11.45;;;7.00;;
77520;SDS011;66633;47.628;19.158;2023-06-26T00:48:03;11.88;;;7.15;;
77520;SDS011;66633;47.628;19.158;2023-06-26T00:50:28;11.98;;;7.43;;
77520;SDS011;66633;47.628;19.158;2023-06-26T00:52:54;10.23;;;7.07;;
77520;SDS011;66633;47.628;19.158;2023-06-26T00:55:21;9.93;;;7.10;;
77520;SDS011;66633;47.628;19.158;2023-06-26T00:57:47;11.95;;;8.45;;
77520;SDS011;66633;47.628;19.158;2023-06-26T01:00:13;11.93;;;7.78;;
77520;SDS011;66633;47.628;19.158;2023-06-26T01:02:39;11.52;;;8.30;;
77520;SDS011;66633;47.628;19.158;2023-06-26T01:05:04;13.03;;;8.10;;
77520;SDS011;66633;47.628;19.158;2023-06-26T01:07:31;10.82;;;7.93;;
77520;SDS011;66633;47.628;19.158;2023-06-26T01:09:59;10.98;;;7.35;;
77520;SDS011;66633;47.628;19.158;2023-06-26T01:12:25;11.85;;;7.65;;
77520;SDS011;66633;47.628;19.158;2023-06-26T01:14:52;10.95;;;8.07;;
77520;SDS011;66633;47.628;19.158;2023-06-26T01:17:17;12.45;;;8.93;;
77520;SDS011;66633;47.628;19.158;2023-06-26T01:19:42;13.15;;;8.40;;
77520;SDS011;66633;47.628;19.158;2023-06-26T01:24:45;12.68;;;9.32;;
77520;SDS011;66633;47.628;19.158;2023-06-26T01:27:14;14.50;;;9.10;;
77520;SDS011;66633;47.628;19.158;2023-06-26T01:29:40;13.13;;;8.35;;
77520;SDS011;66633;47.628;19.158;2023-06-26T01:32:06;12.88;;;8.73;;
77520;SDS011;66633;47.628;19.158;2023-06-26T01:34:31;11.63;;;8.02;;
77520;SDS011;66633;47.628;19.158;2023-06-26T01:36:57;12.07;;;8.13;;
77520;SDS011;66633;47.628;19.158;2023-06-26T01:39:22;11.57;;;8.13;;
77520;SDS011;66633;47.628;19.158;2023-06-26T01:41:47;11.63;;;7.90;;
77520;SDS011;66633;47.628;19.158;2023-06-26T01:57:23;12.90;;;7.97;;
77520;SDS011;66633;47.628;19.158;2023-06-26T01:59:51;10.90;;;7.50;;
77520;SDS011;66633;47.628;19.158;2023-06-26T02:02:17;9.93;;;7.68;;
77520;SDS011;66633;47.628;19.158;2023-06-26T02:04:43;13.93;;;8.60;;
77520;SDS011;66633;47.628;19.158;2023-06-26T02:07:08;11.85;;;8.90;;
77520;SDS011;66633;47.628;19.158;2023-06-26T02:09:35;11.20;;;8.50;;
77520;SDS011;66633;47.628;19.158;2023-06-26T02:12:00;12.75;;;8.13;;
77520;SDS011;66633;47.628;19.158;2023-06-26T02:14:26;10.77;;;7.45;;
77520;SDS011;66633;47.628;19.158;2023-06-26T02:16:51;10.85;;;7.47;;
77520;SDS011;66633;47.628;19.158;2023-06-26T02:19:16;12.30;;;7.13;;
77520;SDS011;66633;47.628;19.158;2023-06-26T02:21:46;12.07;;;7.78;;
77520;SDS011;66633;47.628;19.158;2023-06-26T02:24:12;10.65;;;6.75;;
77520;SDS011;66633;47.628;19.158;2023-06-26T02:26:37;11.82;;;6.97;;
77520;SDS011;66633;47.628;19.158;2023-06-26T02:29:02;9.48;;;6.22;;
77520;SDS011;66633;47.628;19.158;2023-06-26T02:31:28;10.50;;;7.63;;
77520;SDS011;66633;47.628;19.158;2023-06-26T02:33:53;12.98;;;8.25;;
77520;SDS011;66633;47.628;19.158;2023-06-26T02:36:18;10.63;;;6.63;;
77520;SDS011;66633;47.628;19.158;2023-06-26T02:38:43;9.40;;;6.47;;
77520;SDS011;66633;47.628;19.158;2023-06-26T02:41:09;9.82;;;6.53;;
77520;SDS011;66633;47.628;19.158;2023-06-26T02:43:34;10.75;;;6.82;;
77520;SDS011;66633;47.628;19.158;2023-06-26T02:45:59;10.10;;;6.35;;
77520;SDS011;66633;47.628;19.158;2023-06-26T02:48:25;10.32;;;6.63;;
77520;SDS011;66633;47.628;19.158;2023-06-26T02:50:50;9.15;;;5.57;;
77520;SDS011;66633;47.628;19.158;2023-06-26T02:53:16;12.27;;;7.70;;
77520;SDS011;66633;47.628;19.158;2023-06-26T02:55:41;12.70;;;7.10;;
77520;SDS011;66633;47.628;19.158;2023-06-26T02:58:06;13.50;;;8.10;;
77520;SDS011;66633;47.628;19.158;2023-06-26T03:00:32;10.50;;;7.57;;
77520;SDS011;66633;47.628;19.158;2023-06-26T03:02:57;9.93;;;6.37;;
77520;SDS011;66633;47.628;19.158;2023-06-26T03:05:22;10.35;;;6.55;;
77520;SDS011;66633;47.628;19.158;2023-06-26T03:07:48;11.23;;;7.15;;
77520;SDS011;66633;47.628;19.158;2023-06-26T03:10:19;9.35;;;5.93;;
77520;SDS011;66633;47.628;19.158;2023-06-26T03:12:44;11.20;;;6.82;;
77520;SDS011;66633;47.628;19.158;2023-06-26T03:15:12;10.93;;;6.63;;
77520;SDS011;66633;47.628;19.158;2023-06-26T03:17:37;9.57;;;6.78;;
77520;SDS011;66633;47.628;19.158;2023-06-26T03:20:02;10.80;;;7.03;;
77520;SDS011;66633;47.628;19.158;2023-06-26T03:22:31;10.90;;;8.15;;
77520;SDS011;66633;47.628;19.158;2023-06-26T03:24:57;13.65;;;7.95;;
77520;SDS011;66633;47.628;19.158;2023-06-26T03:27:22;11.93;;;7.93;;
77520;SDS011;66633;47.628;19.158;2023-06-26T03:29:47;12.25;;;7.68;;
77520;SDS011;66633;47.628;19.158;2023-06-26T03:32:13;12.05;;;7.72;;
77520;SDS011;66633;47.628;19.158;2023-06-26T03:34:38;11.88;;;8.15;;
77520;SDS011;66633;47.628;19.158;2023-06-26T03:37:04;13.20;;;7.05;;
77520;SDS011;66633;47.628;19.158;2023-06-26T03:39:30;10.77;;;6.88;;
77520;SDS011;66633;47.628;19.158;2023-06-26T03:41:55;12.20;;;8.02;;
77520;SDS011;66633;47.628;19.158;2023-06-26T03:46:50;10.93;;;7.60;;
77520;SDS011;66633;47.628;19.158;2023-06-26T03:49:15;11.13;;;7.47;;
77520;SDS011;66633;47.628;19.158;2023-06-26T03:51:41;11.05;;;7.38;;
77520;SDS011;66633;47.628;19.158;2023-06-26T03:54:06;10.88;;;7.53;;
77520;SDS011;66633;47.628;19.158;2023-06-26T03:56:31;10.95;;;7.32;;
77520;SDS011;66633;47.628;19.158;2023-06-26T03:58:57;11.68;;;7.47;;
77520;SDS011;66633;47.628;19.158;2023-06-26T04:01:23;11.30;;;7.65;;
77520;SDS011;66633;47.628;19.158;2023-06-26T04:03:48;12.00;;;7.75;;
77520;SDS011;66633;47.628;19.158;2023-06-26T04:06:13;11.37;;;7.40;;
77520;SDS011;66633;47.628;19.158;2023-06-26T04:08:39;11.25;;;7.93;;
77520;SDS011;66633;47.628;19.158;2023-06-26T04:11:04;12.53;;;7.13;;
77520;SDS011;66633;47.628;19.158;2023-06-26T04:13:29;9.17;;;6.60;;
77520;SDS011;66633;47.628;19.158;2023-06-26T04:15:54;11.03;;;8.33;;
77520;SDS011;66633;47.628;19.158;2023-06-26T04:18:20;12.00;;;8.68;;
77520;SDS011;66633;47.628;19.158;2023-06-26T04:21:08;13.68;;;8.73;;
77520;SDS011;66633;47.628;19.158;2023-06-26T04:23:32;13.73;;;8.55;;
77520;SDS011;66633;47.628;19.158;2023-06-26T04:25:57;11.95;;;8.23;;
77520;SDS011;66633;47.628;19.158;2023-06-26T04:28:26;13.77;;;8.02;;
77520;SDS011;66633;47.628;19.158;2023-06-26T04:30:51;10.98;;;7.85;;
77520;SDS011;66633;47.628;19.158;2023-06-26T04:33:18;12.30;;;8.57;;
77520;SDS011;66633;47.628;19.158;2023-06-26T04:35:43;11.02;;;8.25;;
77520;SDS011;66633;47.628;19.158;2023-06-26T04:40:38;11.57;;;8.13;;
77520;SDS011;66633;47.628;19.158;2023-06-26T04:43:04;14.05;;;8.63;;
77520;SDS011;66633;47.628;19.158;2023-06-26T04:45:29;10.48;;;7.90;;
77520;SDS011;66633;47.628;19.158;2023-06-26T04:47:55;12.27;;;8.30;;
77520;SDS011;66633;47.628;19.158;2023-06-26T04:50:21;11.13;;;8.02;;
77520;SDS011;66633;47.628;19.158;2023-06-26T04:52:46;11.60;;;8.05;;
77520;SDS011;66633;47.628;19.158;2023-06-26T04:55:12;12.47;;;8.60;;
77520;SDS011;66633;47.628;19.158;2023-06-26T04:57:38;12.43;;;9.00;;
77520;SDS011;66633;47.628;19.158;2023-06-26T05:00:04;11.32;;;8.13;;
77520;SDS011;66633;47.628;19.158;2023-06-26T05:02:35;11.50;;;7.97;;
77520;SDS011;66633;47.628;19.158;2023-06-26T05:05:01;12.85;;;8.35;;
77520;SDS011;66633;47.628;19.158;2023-06-26T05:07:26;11.23;;;7.65;;
77520;SDS011;66633;47.628;19.158;2023-06-26T05:09:52;13.23;;;8.80;;
77520;SDS011;66633;47.628;19.158;2023-06-26T05:12:18;11.27;;;7.63;;
77520;SDS011;66633;47.628;19.158;2023-06-26T05:14:43;12.65;;;7.97;;
77520;SDS011;66633;47.628;19.158;2023-06-26T05:17:10;11.82;;;7.25;;
77520;SDS011;66633;47.628;19.158;2023-06-26T05:19:37;10.63;;;7.55;;
77520;SDS011;66633;47.628;19.158;2023-06-26T05:22:10;11.45;;;7.60;;
77520;SDS011;66633;47.628;19.158;2023-06-26T05:24:37;10.63;;;7.85;;
77520;SDS011;66633;47.628;19.158;2023-06-26T05:27:04;11.57;;;7.43;;
77520;SDS011;66633;47.628;19.158;2023-06-26T05:29:30;9.98;;;7.68;;
77520;SDS011;66633;47.628;19.158;2023-06-26T05:31:56;11.07;;;7.47;;
77520;SDS011;66633;47.628;19.158;2023-06-26T05:34:26;10.27;;;7.38;;
77520;SDS011;66633;47.628;19.158;2023-06-26T05:36:55;13.55;;;7.40;;
77520;SDS011;66633;47.628;19.158;2023-06-26T05:39:21;10.65;;;7.43;;
77520;SDS011;66633;47.628;19.158;2023-06-26T05:41:47;10.82;;;7.53;;
77520;SDS011;66633;47.628;19.158;2023-06-26T05:44:13;11.57;;;7.60;;
77520;SDS011;66633;47.628;19.158;2023-06-26T05:46:39;12.20;;;7.72;;
77520;SDS011;66633;47.628;19.158;2023-06-26T05:49:05;10.55;;;7.43;;
77520;SDS011;66633;47.628;19.158;2023-06-26T05:51:31;10.88;;;7.45;;
77520;SDS011;66633;47.628;19.158;2023-06-26T05:53:57;10.38;;;6.93;;
77520;SDS011;66633;47.628;19.158;2023-06-26T05:56:22;9.95;;;7.30;;
77520;SDS011;66633;47.628;19.158;2023-06-26T05:58:49;10.38;;;7.38;;
77520;SDS011;66633;47.628;19.158;2023-06-26T06:01:17;11.63;;;7.22;;
77520;SDS011;66633;47.628;19.158;2023-06-26T06:03:45;12.15;;;7.03;;
77520;SDS011;66633;47.628;19.158;2023-06-26T06:06:10;10.98;;;7.13;;
77520;SDS011;66633;47.628;19.158;2023-06-26T06:08:37;10.40;;;7.07;;
77520;SDS011;66633;47.628;19.158;2023-06-26T06:11:07;10.23;;;7.13;;
77520;SDS011;66633;47.628;19.158;2023-06-26T06:13:32;10.32;;;6.18;;
77520;SDS011;66633;47.628;19.158;2023-06-26T06:16:00;10.38;;;6.65;;
77520;SDS011;66633;47.628;19.158;2023-06-26T06:18:26;10.75;;;6.80;;
77520;SDS011;66633;47.628;19.158;2023-06-26T06:20:52;9.68;;;6.72;;
77520;SDS011;66633;47.628;19.158;2023-06-26T06:23:18;10.55;;;6.72;;
77520;SDS011;66633;47.628;19.158;2023-06-26T06:25:45;9.60;;;6.97;;
77520;SDS011;66633;47.628;19.158;2023-06-26T06:28:11;10.65;;;6.70;;
77520;SDS011;66633;47.628;19.158;2023-06-26T06:33:07;10.02;;;7.05;;
77520;SDS011;66633;47.628;19.158;2023-06-26T06:35:32;9.57;;;7.10;;
77520;SDS011;66633;47.628;19.158;2023-06-26T06:38:01;9.65;;;7.28;;
77520;SDS011;66633;47.628;19.158;2023-06-26T06:40:27;10.23;;;6.60;;
77520;SDS011;66633;47.628;19.158;2023-06-26T06:42:53;10.25;;;7.00;;
77520;SDS011;66633;47.628;19.158;2023-06-26T06:45:18;9.67;;;7.43;;
77520;SDS011;66633;47.628;19.158;2023-06-26T06:47:44;10.98;;;7.20;;
77520;SDS011;66633;47.628;19.158;2023-06-26T06:50:09;8.63;;;6.90;;
77520;SDS011;66633;47.628;19.158;2023-06-26T06:52:35;10.23;;;6.88;;
77520;SDS011;66633;47.628;19.158;2023-06-26T06:55:06;11.20;;;7.13;;
77520;SDS011;66633;47.628;19.158;2023-06-26T06:57:36;13.27;;;8.10;;
77520;SDS011;66633;47.628;19.158;2023-06-26T07:00:07;9.63;;;6.60;;
77520;SDS011;66633;47.628;19.158;2023-06-26T07:02:36;9.23;;;6.72;;
77520;SDS011;66633;47.628;19.158;2023-06-26T07:05:02;10.77;;;7.50;;
77520;SDS011;66633;47.628;19.158;2023-06-26T07:07:29;9.68;;;6.40;;
77520;SDS011;66633;47.628;19.158;2023-06-26T07:09:56;10.93;;;7.53;;
77520;SDS011;66633;47.628;19.158;2023-06-26T07:12:21;12.02;;;7.63;;
77520;SDS011;66633;47.628;19.158;2023-06-26T07:14:47;9.40;;;6.60;;
77520;SDS011;66633;47.628;19.158;2023-06-26T07:17:12;8.70;;;6.55;;
77520;SDS011;66633;47.628;19.158;2023-06-26T07:19:37;9.93;;;6.93;;
77520;SDS011;66633;47.628;19.158;2023-06-26T07:22:03;12.07;;;7.53;;
77520;SDS011;66633;47.628;19.158;2023-06-26T07:24:28;10.07;;;7.38;;
77520;SDS011;66633;47.628;19.158;2023-06-26T07:26:53;9.77;;;6.72;;
77520;SDS011;66633;47.628;19.158;2023-06-26T07:29:19;11.07;;;7.28;;
77520;SDS011;66633;47.628;19.158;2023-06-26T07:31:44;9.63;;;7.17;;
77520;SDS011;66633;47.628;19.158;2023-06-26T07:34:10;11.40;;;6.90;;
77520;SDS011;66633;47.628;19.158;2023-06-26T07:36:35;9.95;;;7.60;;
77520;SDS011;66633;47.628;19.158;2023-06-26T07:39:01;9.67;;;7.13;;
77520;SDS011;66633;47.628;19.158;2023-06-26T07:41:27;10.45;;;6.95;;
77520;SDS011;66633;47.628;19.158;2023-06-26T07:43:54;9.38;;;6.22;;
77520;SDS011;66633;47.628;19.158;2023-06-26T07:46:32;7.73;;;5.83;;
77520;SDS011;66633;47.628;19.158;2023-06-26T07:48:58;9.40;;;6.45;;
77520;SDS011;66633;47.628;19.158;2023-06-26T07:51:23;8.93;;;6.53;;
77520;SDS011;66633;47.628;19.158;2023-06-26T07:53:49;11.82;;;7.45;;
77520;SDS011;66633;47.628;19.158;2023-06-26T07:56:14;10.80;;;7.80;;
77520;SDS011;66633;47.628;19.158;2023-06-26T07:58:39;12.77;;;7.97;;
77520;SDS011;66633;47.628;19.158;2023-06-26T08:01:05;10.55;;;7.43;;
77520;SDS011;66633;47.628;19.158;2023-06-26T08:03:30;12.57;;;7.07;;
77520;SDS011;66633;47.628;19.158;2023-06-26T08:05:55;10.05;;;7.18;;
77520;SDS011;66633;47.628;19.158;2023-06-26T08:08:22;10.52;;;7.95;;
77520;SDS011;66633;47.628;19.158;2023-06-26T08:10:47;9.95;;;7.70;;
77520;SDS011;66633;47.628;19.158;2023-06-26T08:13:12;13.25;;;9.27;;
77520;SDS011;66633;47.628;19.158;2023-06-26T08:15:38;9.68;;;6.85;;
77520;SDS011;66633;47.628;19.158;2023-06-26T08:18:04;8.88;;;6.60;;
77520;SDS011;66633;47.628;19.158;2023-06-26T08:20:31;12.32;;;8.18;;
77520;SDS011;66633;47.628;19.158;2023-06-26T08:23:04;10.05;;;8.10;;
77520;SDS011;66633;47.628;19.158;2023-06-26T08:25:29;10.50;;;7.20;;
77520;SDS011;66633;47.628;19.158;2023-06-26T08:27:55;9.40;;;7.22;;
77520;SDS011;66633;47.628;19.158;2023-06-26T08:30:21;12.70;;;7.22;;
77520;SDS011;66633;47.628;19.158;2023-06-26T08:32:46;9.73;;;7.78;;
77520;SDS011;66633;47.628;19.158;2023-06-26T08:35:12;10.25;;;7.30;;
77520;SDS011;66633;47.628;19.158;2023-06-26T08:37:38;9.68;;;7.45;;
77520;SDS011;66633;47.628;19.158;2023-06-26T08:40:05;10.68;;;8.20;;
77520;SDS011;66633;47.628;19.158;2023-06-26T08:42:31;10.65;;;7.15;;
77520;SDS011;66633;47.628;19.158;2023-06-26T08:44:56;10.60;;;7.68;;
77520;SDS011;66633;47.628;19.158;2023-06-26T08:47:22;9.93;;;7.00;;
77520;SDS011;66633;47.628;19.158;2023-06-26T08:54:42;10.50;;;7.60;;
77520;SDS011;66633;47.628;19.158;2023-06-26T08:57:12;10.00;;;7.50;;
77520;SDS011;66633;47.628;19.158;2023-06-26T08:59:40;9.75;;;7.28;;
77520;SDS011;66633;47.628;19.158;2023-06-26T09:02:05;11.25;;;6.93;;
77520;SDS011;66633;47.628;19.158;2023-06-26T09:04:33;11.27;;;7.20;;
77520;SDS011;66633;47.628;19.158;2023-06-26T09:06:59;10.40;;;7.70;;
77520;SDS011;66633;47.628;19.158;2023-06-26T09:09:25;9.43;;;7.50;;
77520;SDS011;66633;47.628;19.158;2023-06-26T09:11:51;9.30;;;7.27;;
77520;SDS011;66633;47.628;19.158;2023-06-26T09:14:16;12.70;;;7.38;;
77520;SDS011;66633;47.628;19.158;2023-06-26T09:16:42;10.48;;;7.80;;
77520;SDS011;66633;47.628;19.158;2023-06-26T09:19:13;9.30;;;7.05;;
77520;SDS011;66633;47.628;19.158;2023-06-26T09:21:41;10.27;;;7.00;;
77520;SDS011;66633;47.628;19.158;2023-06-26T09:24:07;11.48;;;8.60;;
77520;SDS011;66633;47.628;19.158;2023-06-26T09:26:36;10.95;;;7.95;;
77520;SDS011;66633;47.628;19.158;2023-06-26T09:29:02;11.52;;;8.40;;
77520;SDS011;66633;47.628;19.158;2023-06-26T09:31:27;9.57;;;7.80;;
77520;SDS011;66633;47.628;19.158;2023-06-26T09:33:55;9.00;;;7.13;;
77520;SDS011;66633;47.628;19.158;2023-06-26T09:36:22;11.00;;;7.95;;
77520;SDS011;66633;47.628;19.158;2023-06-26T09:38:49;11.00;;;7.20;;
77520;SDS011;66633;47.628;19.158;2023-06-26T09:41:19;9.77;;;6.95;;
77520;SDS011;66633;47.628;19.158;2023-06-26T09:43:48;9.13;;;7.10;;
77520;SDS011;66633;47.628;19.158;2023-06-26T09:46:17;8.85;;;7.05;;
77520;SDS011;66633;47.628;19.158;2023-06-26T09:48:49;10.68;;;7.85;;
77520;SDS011;66633;47.628;19.158;2023-06-26T09:51:16;9.88;;;7.50;;
77520;SDS011;66633;47.628;19.158;2023-06-26T09:53:41;10.10;;;8.00;;
77520;SDS011;66633;47.628;19.158;2023-06-26T09:56:07;9.93;;;7.65;;
77520;SDS011;66633;47.628;19.158;2023-06-26T09:58:32;10.40;;;7.00;;
77520;SDS011;66633;47.628;19.158;2023-06-26T10:00:58;9.50;;;7.07;;
77520;SDS011;66633;47.628;19.158;2023-06-26T10:03:24;9.50;;;7.43;;
77520;SDS011;66633;47.628;19.158;2023-06-26T10:05:49;10.45;;;8.68;;
77520;SDS011;66633;47.628;19.158;2023-06-26T10:08:15;10.32;;;7.82;;
77520;SDS011;66633;47.628;19.158;2023-06-26T10:10:41;10.27;;;7.22;;
77520;SDS011;66633;47.628;19.158;2023-06-26T10:13:18;14.70;;;8.27;;
77520;SDS011;66633;47.628;19.158;2023-06-26T10:15:46;11.35;;;8.52;;
77520;SDS011;66633;47.628;19.158;2023-06-26T10:18:12;10.82;;;8.70;;
77520;SDS011;66633;47.628;19.158;2023-06-26T10:20:38;10.45;;;7.53;;
77520;SDS011;66633;47.628;19.158;2023-06-26T10:23:04;11.05;;;8.07;;
77520;SDS011;66633;47.628;19.158;2023-06-26T10:25:30;11.13;;;8.65;;
77520;SDS011;66633;47.628;19.158;2023-06-26T10:27:57;10.10;;;7.30;;
77520;SDS011;66633;47.628;19.158;2023-06-26T10:30:28;9.45;;;7.65;;
77520;SDS011;66633;47.628;19.158;2023-06-26T10:32:54;11.05;;;7.28;;
77520;SDS011;66633;47.628;19.158;2023-06-26T10:35:19;10.48;;;8.50;;
77520;SDS011;66633;47.628;19.158;2023-06-26T10:37:49;12.88;;;8.05;;
77520;SDS011;66633;47.628;19.158;2023-06-26T10:40:18;12.77;;;8.45;;
77520;SDS011;66633;47.628;19.158;2023-06-26T10:42:46;11.27;;;7.65;;
77520;SDS011;66633;47.628;19.158;2023-06-26T10:45:14;13.20;;;9.43;;
77520;SDS011;66633;47.628;19.158;2023-06-26T10:47:39;11.20;;;8.93;;
77520;SDS011;66633;47.628;19.158;2023-06-26T10:50:18;9.82;;;8.02;;
77520;SDS011;66633;47.628;19.158;2023-06-26T10:52:44;10.57;;;8.60;;
77520;SDS011;66633;47.628;19.158;2023-06-26T10:55:13;10.27;;;7.38;;
77520;SDS011;66633;47.628;19.158;2023-06-26T10:57:38;10.80;;;7.80;;
77520;SDS011;66633;47.628;19.158;2023-06-26T11:00:10;11.13;;;7.68;;
77520;SDS011;66633;47.628;19.158;2023-06-26T11:02:49;12.05;;;8.13;;
77520;SDS011;66633;47.628;19.158;2023-06-26T11:05:29;11.05;;;8.95;;
77520;SDS011;66633;47.628;19.158;2023-06-26T11:08:07;11.43;;;8.48;;
77520;SDS011;66633;47.628;19.158;2023-06-26T11:10:54;10.13;;;8.40;;
77520;SDS011;66633;47.628;19.158;2023-06-26T11:13:19;12.35;;;8.27;;
77520;SDS011;66633;47.628;19.158;2023-06-26T11:15:45;9.98;;;7.90;;
77520;SDS011;66633;47.628;19.158;2023-06-26T11:18:10;12.38;;;7.95;;
77520;SDS011;66633;47.628;19.158;2023-06-26T11:20:36;9.82;;;7.20;;
77520;SDS011;66633;47.628;19.158;2023-06-26T11:23:01;11.38;;;7.65;;
77520;SDS011;66633;47.628;19.158;2023-06-26T11:25:29;9.32;;;7.45;;
77520;SDS011;66633;47.628;19.158;2023-06-26T11:27:55;10.23;;;7.45;;
77520;SDS011;66633;47.628;19.158;2023-06-26T11:30:24;10.68;;;6.93;;
77520;SDS011;66633;47.628;19.158;2023-06-26T11:32:49;9.80;;;7.00;;
77520;SDS011;66633;47.628;19.158;2023-06-26T11:35:24;10.10;;;7.30;;
77520;SDS011;66633;47.628;19.158;2023-06-26T11:37:55;10.10;;;7.57;;
77520;SDS011;66633;47.628;19.158;2023-06-26T11:40:21;8.60;;;6.72;;
77520;SDS011;66633;47.628;19.158;2023-06-26T11:42:52;10.70;;;7.13;;
77520;SDS011;66633;47.628;19.158;2023-06-26T11:45:17;10.25;;;7.53;;
77520;SDS011;66633;47.628;19.158;2023-06-26T11:47:42;10.52;;;7.22;;
77520;SDS011;66633;47.628;19.158;2023-06-26T11:50:14;9.48;;;7.65;;
77520;SDS011;66633;47.628;19.158;2023-06-26T11:52:41;8.40;;;6.43;;
77520;SDS011;66633;47.628;19.158;2023-06-26T11:55:06;9.00;;;7.85;;
77520;SDS011;66633;47.628;19.158;2023-06-26T11:57:37;10.63;;;7.70;;
77520;SDS011;66633;47.628;19.158;2023-06-26T12:00:13;11.18;;;7.82;;
77520;SDS011;66633;47.628;19.158;2023-06-26T12:02:39;10.95;;;7.90;;
77520;SDS011;66633;47.628;19.158;2023-06-26T12:05:06;10.32;;;7.35;;
77520;SDS011;66633;47.628;19.158;2023-06-26T12:07:31;10.95;;;8.35;;
77520;SDS011;66633;47.628;19.158;2023-06-26T12:09:57;9.40;;;7.22;;
77520;SDS011;66633;47.628;19.158;2023-06-26T12:12:25;8.55;;;6.25;;
77520;SDS011;66633;47.628;19.158;2023-06-26T12:14:51;9.48;;;7.38;;
77520;SDS011;66633;47.628;19.158;2023-06-26T12:17:17;10.02;;;7.90;;
77520;SDS011;66633;47.628;19.158;2023-06-26T12:19:43;9.65;;;7.28;;
77520;SDS011;66633;47.628;19.158;2023-06-26T12:22:09;8.30;;;6.68;;
77520;SDS011;66633;47.628;19.158;2023-06-26T12:24:37;10.50;;;7.10;;
77520;SDS011;66633;47.628;19.158;2023-06-26T12:27:06;9.13;;;6.95;;
77520;SDS011;66633;47.628;19.158;2023-06-26T12:29:32;9.50;;;7.05;;
77520;SDS011;66633;47.628;19.158;2023-06-26T12:31:58;8.00;;;6.30;;
77520;SDS011;66633;47.628;19.158;2023-06-26T12:34:28;9.60;;;7.05;;
77520;SDS011;66633;47.628;19.158;2023-06-26T12:36:53;8.77;;;6.60;;
77520;SDS011;66633;47.628;19.158;2023-06-26T12:39:19;9.23;;;6.70;;
77520;SDS011;66633;47.628;19.158;2023-06-26T12:41:49;10.10;;;6.97;;
77520;SDS011;66633;47.628;19.158;2023-06-26T12:44:20;9.95;;;7.82;;
77520;SDS011;66633;47.628;19.158;2023-06-26T12:49:14;8.88;;;7.28;;
77520;SDS011;66633;47.628;19.158;2023-06-26T12:51:39;10.38;;;7.68;;
77520;SDS011;66633;47.628;19.158;2023-06-26T12:54:08;10.27;;;7.95;;
77520;SDS011;66633;47.628;19.158;2023-06-26T12:56:34;10.55;;;7.43;;
77520;SDS011;66633;47.628;19.158;2023-06-26T12:58:59;10.13;;;7.13;;
77520;SDS011;66633;47.628;19.158;2023-06-26T13:01:26;10.00;;;6.93;;
77520;SDS011;66633;47.628;19.158;2023-06-26T13:03:53;10.25;;;7.80;;
77520;SDS011;66633;47.628;19.158;2023-06-26T13:06:18;8.80;;;7.35;;
77520;SDS011;66633;47.628;19.158;2023-06-26T13:08:43;8.50;;;6.80;;
77520;SDS011;66633;47.628;19.158;2023-06-26T13:11:09;9.65;;;7.13;;
77520;SDS011;66633;47.628;19.158;2023-06-26T13:13:34;10.05;;;7.30;;
77520;SDS011;66633;47.628;19.158;2023-06-26T13:15:59;8.77;;;6.88;;
77520;SDS011;66633;47.628;19.158;2023-06-26T13:18:25;10.30;;;6.70;;
77520;SDS011;66633;47.628;19.158;2023-06-26T13:20:50;8.82;;;6.60;;
77520;SDS011;66633;47.628;19.158;2023-06-26T13:23:16;9.27;;;7.20;;
77520;SDS011;66633;47.628;19.158;2023-06-26T13:25:42;8.85;;;6.72;;
77520;SDS011;66633;47.628;19.158;2023-06-26T13:28:08;9.50;;;6.57;;
77520;SDS011;66633;47.628;19.158;2023-06-26T13:30:34;9.98;;;7.82;;
77520;SDS011;66633;47.628;19.158;2023-06-26T13:33:00;9.00;;;7.05;;
77520;SDS011;66633;47.628;19.158;2023-06-26T13:35:25;10.38;;;7.13;;
77520;SDS011;66633;47.628;19.158;2023-06-26T13:37:51;8.75;;;6.88;;
77520;SDS011;66633;47.628;19.158;2023-06-26T13:40:19;10.32;;;7.55;;
77520;SDS011;66633;47.628;19.158;2023-06-26T13:42:44;9.45;;;7.78;;
77520;SDS011;66633;47.628;19.158;2023-06-26T13:45:10;9.70;;;7.90;;
77520;SDS011;66633;47.628;19.158;2023-06-26T13:47:35;10.45;;;7.07;;
77520;SDS011;66633;47.628;19.158;2023-06-26T13:50:03;12.27;;;7.13;;
77520;SDS011;66633;47.628;19.158;2023-06-26T13:52:28;8.32;;;6.63;;
77520;SDS011;66633;47.628;19.158;2023-06-26T13:54:53;12.52;;;7.30;;
77520;SDS011;66633;47.628;19.158;2023-06-26T13:57:19;9.80;;;6.53;;
77520;SDS011;66633;47.628;19.158;2023-06-26T13:59:47;9.68;;;7.30;;
77520;SDS011;66633;47.628;19.158;2023-06-26T14:02:12;9.77;;;7.20;;
77520;SDS011;66633;47.628;19.158;2023-06-26T14:04:37;10.43;;;6.72;;
77520;SDS011;66633;47.628;19.158;2023-06-26T14:07:03;11.38;;;7.43;;
77520;SDS011;66633;47.628;19.158;2023-06-26T14:09:31;10.10;;;7.18;;
77520;SDS011;66633;47.628;19.158;2023-06-26T14:11:57;10.70;;;6.90;;
77520;SDS011;66633;47.628;19.158;2023-06-26T14:14:23;10.52;;;7.68;;
77520;SDS011;66633;47.628;19.158;2023-06-26T14:16:48;10.07;;;7.50;;
77520;SDS011;66633;47.628;19.158;2023-06-26T14:19:14;10.23;;;7.95;;
77520;SDS011;66633;47.628;19.158;2023-06-26T14:21:40;10.13;;;6.85;;
77520;SDS011;66633;47.628;19.158;2023-06-26T14:24:06;9.48;;;6.55;;
77520;SDS011;66633;47.628;19.158;2023-06-26T14:26:31;8.93;;;6.90;;
77520;SDS011;66633;47.628;19.158;2023-06-26T14:28:58;8.93;;;6.65;;
77520;SDS011;66633;47.628;19.158;2023-06-26T14:31:24;10.43;;;6.85;;
77520;SDS011;66633;47.628;19.158;2023-06-26T14:33:49;8.98;;;6.82;;
77520;SDS011;66633;47.628;19.158;2023-06-26T14:36:15;8.40;;;7.00;;
77520;SDS011;66633;47.628;19.158;2023-06-26T14:38:41;9.35;;;7.03;;
77520;SDS011;66633;47.628;19.158;2023-06-26T14:41:06;8.25;;;6.28;;
77520;SDS011;66633;47.628;19.158;2023-06-26T14:43:31;10.48;;;6.70;;
77520;SDS011;66633;47.628;19.158;2023-06-26T14:45:57;8.25;;;6.40;;
77520;SDS011;66633;47.628;19.158;2023-06-26T14:48:22;8.88;;;6.60;;
77520;SDS011;66633;47.628;19.158;2023-06-26T14:50:47;10.25;;;6.97;;
77520;SDS011;66633;47.628;19.158;2023-06-26T14:53:12;9.83;;;6.70;;